• Join FlightAware (Why Join?)
  • Login
  • US Flag 
10:37AM EDT


 

Airport Tracker/Info


-or-


 

Live Flight TrackerFlight Track Log ✈ ASQ5433 ✈ 05-Jan-2014 ✈ KABE - KATL

Flight Track Log - Related Links

Times and Time Zones

All times are in EST time to prevent confusion due to time zone crossing. See the ASQ5433 flight status page for this flight to view local times or setup timezone preferences in your user account.

Time Position Orientation Groundspeed Altitude Reporting Facility
EST Latitude Longitude Course Direction KTS MPH feet Rate Location/Type
03:44PM 40.6725 -75.4089 355° North 157 181 1,700  Level New York Center
03:45PM 40.7222 -75.4150 355° North 181 208 3,000 780 Climbing New York Center
03:46PM 40.7442 -75.4958 290° West 184 212 3,300 1,560 Climbing New York Center
03:47PM 40.6983 -75.5503 222° Southwest 153 176 6,200 2,460 Climbing New York Center
03:48PM 40.6522 -75.6044 222° Southwest 206 237 8,300 2,100 Climbing New York Center
03:49PM 40.6019 -75.6611 221° Southwest 234 269 10,400 1,800 Climbing New York Center
03:50PM 40.5447 -75.7333 224° Southwest 256 295 11,900 1,620 Climbing New York Center
03:51PM 40.4919 -75.8033 225° Southwest 269 310 13,700 1,800 Climbing New York Center
03:52PM 40.4411 -75.8706 225° Southwest 275 316 15,600 1,800 Climbing New York Center
03:53PM 40.3856 -75.9456 226° Southwest 280 322 17,300 1,680 Climbing New York Center
03:54PM 40.3236 -76.0281 225° Southwest 290 334 19,000 1,620 Climbing New York Center
03:55PM 40.2686 -76.0944 223° Southwest 290 334 20,600 1,380 Climbing New York Center
03:56PM 40.2128 -76.1717 227° Southwest 295 339 21,800 1,140 Climbing New York Center
03:57PM 40.1531 -76.2514 226° Southwest 295 339 22,900 960 Climbing New York Center
03:58PM 40.0989 -76.3367 230° Southwest 305 351 23,800 960 Climbing New York Center
03:59PM 40.0547 -76.4336 239° Southwest 311 358 24,900 900 Climbing New York Center
04:00PM 40.0103 -76.5331 240° Southwest 316 364 25,700 780 Climbing New York Center
04:01PM 39.9636 -76.6319 238° Southwest 326 375 26,500 720 Climbing New York Center
04:02PM 39.9147 -76.7336 238° Southwest 326 375 27,200 660 Climbing New York Center
04:03PM 39.8681 -76.8322 238° Southwest 326 375 27,900 600 Climbing New York Center
04:03PM 39.8314 -76.9072 238° Southwest 329 379 28,300 480 Climbing Washington Center
04:04PM 39.7844 -77.0092 239° Southwest 318 366 28,800 480 Climbing Washington Center
04:05PM 39.7375 -77.1133 240° Southwest 318 366 29,300 540 Climbing Washington Center
04:06PM 39.6881 -77.2147 238° Southwest 323 372 29,900 540 Climbing Washington Center
04:07PM 39.6389 -77.3161 238° Southwest 329 379 30,400 480 Climbing Washington Center
04:08PM 39.5914 -77.4172 239° Southwest 329 379 30,900 540 Climbing Washington Center
04:09PM 39.5442 -77.5183 239° Southwest 335 386 31,500 540 Climbing Washington Center
04:10PM 39.4967 -77.6167 238° Southwest 335 386 32,000 240 Climbing Washington Center
04:11PM 39.4492 -77.7175 239° Southwest 335 386 32,000  Level Washington Center
04:12PM 39.3992 -77.8208 238° Southwest 340 391 32,000  Level Washington Center
04:13PM 39.3533 -77.9319 242° Southwest 340 391 32,000  Level Washington Center
04:14PM 39.3075 -78.0433 242° Southwest 345 397 32,000  Level Washington Center
04:15PM 39.2614 -78.1569 242° Southwest 350 403 32,000  Level Washington Center
04:16PM 39.2150 -78.2733 243° Southwest 356 410 32,000  Level Washington Center
04:17PM 39.1706 -78.3919 244° Southwest 361 415 32,000  Level Washington Center
04:18PM 39.1242 -78.5081 243° Southwest 361 415 32,000  Level Washington Center
04:19PM 39.0753 -78.6236 241° Southwest 361 415 32,000  Level Washington Center
04:20PM 39.0286 -78.7419 243° Southwest 361 415 32,000  Level Washington Center
04:21PM 38.9817 -78.8575 242° Southwest 361 415 32,000  Level Washington Center
04:22PM 38.9325 -78.9728 241° Southwest 361 415 32,000  Level Washington Center
04:23PM 38.8856 -79.0906 243° Southwest 361 415 32,000  Level Washington Center
04:24PM 38.8383 -79.2056 242° Southwest 366 421 32,000  Level Washington Center
04:25PM 38.8150 -79.3536 259° West 374 430 32,000  Level Washington Center
04:26PM 38.7928 -79.4644 256° West 374 430 32,000  Level Washington Center
04:27PM 38.7736 -79.5992 260° West 374 430 32,000  Level Washington Center
04:28PM 38.7486 -79.7256 256° West 374 430 32,000  Level Washington Center
04:30PM 38.7133 -79.8942 255° West 369 425 32,000  Level Indianapolis Center
04:31PM 38.6906 -80.0217 257° West 368 423 32,000  Level Indianapolis Center
04:32PM 38.6664 -80.1494 256° West 369 425 32,000  Level Indianapolis Center
04:33PM 38.6431 -80.2761 257° West 367 422 32,000  Level Indianapolis Center
04:34PM 38.6189 -80.4033 256° West 368 423 32,000  Level Indianapolis Center
04:35PM 38.5950 -80.5303 256° West 368 423 32,000  Level Indianapolis Center
04:36PM 38.5700 -80.6567 256° West 365 420 32,000  Level Indianapolis Center
04:37PM 38.5464 -80.7825 257° West 365 420 32,000  Level Indianapolis Center
04:38PM 38.5217 -80.9075 256° West 362 417 32,000  Level Indianapolis Center
04:39PM 38.4747 -81.0219 242° Southwest 366 421 32,000  Level Indianapolis Center
04:40PM 38.3889 -81.0908 212° Southwest 364 419 32,000  Level Indianapolis Center
04:41PM 38.2964 -81.1492 206° Southwest 367 422 32,000  Level Indianapolis Center
04:42PM 38.2047 -81.2078 207° Southwest 367 422 32,000  Level Indianapolis Center
04:43PM 38.0933 -81.2772 206° Southwest 368 423 32,000  Level Indianapolis Center
04:44PM 38.0000 -81.3356 206° Southwest 371 427 32,000  Level Indianapolis Center
04:45PM 37.9058 -81.3928 206° Southwest 373 429 32,000  Level Indianapolis Center
04:46PM 37.8083 -81.4533 206° Southwest 374 430 32,000  Level Indianapolis Center
04:47PM 37.7128 -81.5142 207° Southwest 370 426 32,000  Level Indianapolis Center
04:48PM 37.6175 -81.5714 205° Southwest 375 432 32,000  Level Indianapolis Center
04:49PM 37.5231 -81.6275 205° Southwest 374 430 32,000  Level Indianapolis Center
04:50PM 37.4297 -81.6858 206° Southwest 374 430 32,000  Level Indianapolis Center
04:51PM 37.3364 -81.7422 206° Southwest 372 428 32,000  Level Indianapolis Center
04:52PM 37.2431 -81.8003 206° Southwest 371 427 32,000  Level Indianapolis Center
04:53PM 37.1503 -81.8572 206° Southwest 371 427 32,000  Level Indianapolis Center
04:54PM 37.0578 -81.9142 206° Southwest 369 425 32,000  Level Indianapolis Center
04:55PM 36.9631 -81.9703 205° Southwest 372 428 32,000  Level Indianapolis Center
04:56PM 36.8697 -82.0267 206° Southwest 371 427 32,000  Level Indianapolis Center
04:57PM 36.7756 -82.0831 206° Southwest 372 428 32,000  Level Indianapolis Center
04:58PM 36.6819 -82.1400 206° Southwest 372 428 32,000  Level Indianapolis Center
04:59PM 36.5714 -82.2067 206° Southwest 375 432 32,000  Level Indianapolis Center
05:00PM 36.4767 -82.2611 205° Southwest 374 430 32,000  Level Indianapolis Center
05:01PM 36.3836 -82.3169 206° Southwest 371 427 32,000  Level Indianapolis Center
05:02PM 36.2889 -82.3747 206° Southwest 379 436 32,000  Level Atlanta Center
05:03PM 36.1958 -82.4308 206° Southwest 379 436 32,000  Level Atlanta Center
05:04PM 36.1006 -82.4867 205° Southwest 379 436 32,000  Level Atlanta Center
05:05PM 36.0053 -82.5422 205° Southwest 379 436 32,000  Level Atlanta Center
05:06PM 35.9039 -82.6006 205° Southwest 379 436 32,000  Level Atlanta Center
05:07PM 35.8086 -82.6561 205° Southwest 379 436 32,000  Level Atlanta Center
05:08PM 35.7131 -82.7139 206° Southwest 379 436 32,000 -60 Level Atlanta Center
05:09PM 35.6178 -82.7667 204° Southwest 379 436 31,900 -660 Descending Atlanta Center
05:10PM 35.5225 -82.8242 206° Southwest 379 436 30,700 -1,260 Descending Atlanta Center
05:11PM 35.4292 -82.8792 206° Southwest 379 436 29,400 -1,200 Descending Atlanta Center
05:12PM 35.3336 -82.9442 209° Southwest 384 442 28,300 -1,200 Descending Atlanta Center
05:13PM 35.2425 -83.0089 210° Southwest 379 436 27,000 -1,200 Descending Atlanta Center
05:14PM 35.1511 -83.0786 212° Southwest 385 443 25,900 -1,200 Descending Atlanta Center
05:15PM 35.0619 -83.1456 212° Southwest 385 443 24,700 -960 Descending Atlanta Center
05:16PM 34.9644 -83.2150 210° Southwest 385 443 24,000 -360 Descending Atlanta Center
05:17PM 34.8772 -83.2792 211° Southwest 390 449 24,000  Level Atlanta Center
05:18PM 34.7919 -83.3408 211° Southwest 385 443 24,000  Level Atlanta Center
05:19PM 34.7025 -83.4019 209° Southwest 385 443 24,000  Level Atlanta Center
05:20PM 34.6111 -83.4683 211° Southwest 385 443 24,000 -240 Level Atlanta Center
05:21PM 34.5175 -83.5344 210° Southwest 385 443 23,600 -1,260 Descending Atlanta Center
05:22PM 34.4281 -83.6006 211° Southwest 380 437 21,500 -2,100 Descending Atlanta Center
05:23PM 34.3322 -83.6664 210° Southwest 380 437 19,500 -1,980 Descending Atlanta Center
05:24PM 34.2531 -83.7272 212° Southwest 361 415 17,600 -1,800 Descending Atlanta Center
05:25PM 34.1822 -83.7750 209° Southwest 322 371 16,000 -1,620 Descending Atlanta Center
05:26PM 34.1133 -83.8256 211° Southwest 302 348 14,400 -1,020 Descending Atlanta Center
05:27PM 34.0489 -83.8858 218° Southwest 297 342 14,000 -960 Descending Atlanta Center
05:28PM 33.9883 -83.9486 221° Southwest 292 336 12,500 -1,320 Descending Atlanta Center
05:29PM 33.9500 -83.9833 217° Southwest 268 308 12,000 -360 Descending Atlanta TRACON
05:30PM 33.9000 -84.0333 220° Southwest 277 319 12,000  Level Atlanta TRACON
05:31PM 33.8500 -84.1000 228° Southwest 278 320 12,000  Level Atlanta TRACON
05:32PM 33.8000 -84.1833 234° Southwest 279 321 12,000  Level Atlanta TRACON
05:33PM 33.7500 -84.2500 228° Southwest 275 316 12,000 -300 Level Atlanta TRACON
05:34PM 33.7333 -84.3333 256° West 269 310 11,400 -1,260 Descending Atlanta TRACON
05:35PM 33.7333 -84.4167 270° West 251 289 9,500 -2,040 Descending Atlanta TRACON
05:36PM 33.7333 -84.5000 270° West 243 280 7,500 -2,040 Descending Atlanta TRACON
05:37PM 33.7333 -84.5833 270° West 237 273 5,600 -1,320 Descending Atlanta TRACON
05:38PM 33.7333 -84.6500 270° West 224 258 5,000 -360 Descending Atlanta TRACON
05:39PM 33.7333 -84.7333 270° West 229 264 5,000  Level Atlanta TRACON
05:40PM 33.7333 -84.8000 270° West 216 249 5,000  Level Atlanta TRACON
05:41PM 33.7333 -84.8833 270° West 221 254 5,000  Level Atlanta TRACON
05:42PM 33.6833 -84.8833 180° South 229 264 5,000  Level Atlanta TRACON
05:43PM 33.6500 -84.8000 116° Southeast 258 297 5,000  Level Atlanta TRACON
05:44PM 33.6500 -84.7333 90° East 236 272 5,000 -180 Level Atlanta TRACON
05:45PM 33.6500 -84.6500 90° East 235 270 4,700 -840 Descending Atlanta TRACON
05:46PM 33.6500 -84.5833 90° East 213 245 3,400 -1,140 Descending Atlanta TRACON
05:47PM 33.6500 -84.5333 90° East 168 193 2,600 -840 Descending Atlanta TRACON
05:48PM 33.6500 -84.4833 90° East 145 167 1,800 -840 Descending Atlanta TRACON
05:50PM 33.6367 -84.4279 103° East  Level Estimated
05:57PM 33.6367 -84.4279 103° East  Level Estimated
05:58PM 33.6367 -84.4279 103° East  Level Estimated